Time;durP1;ratioP1;P1;durP2;ratioP2;P2;SDS_P1;SDS_P2;PMS_P1;PMS_P2;Temp;Humidity;BMP_temperature;BMP_pressure;BME280_temperature;BME280_humidity;BME280_pressure;Samples;Min_cycle;Max_cycle;Signal;HPM_P1;HPM_P2
2022/03/04 00:02:17;;;;;;;21.23;11.38;;;1.30;46.60;;;;;;5086165;28;20044;-63
2022/03/04 00:04:42;;;;;;;23.30;12.55;;;1.50;46.70;;;;;;5085589;28;20028;-62
2022/03/04 00:07:08;;;;;;;25.50;12.90;;;1.20;46.50;;;;;;5081397;28;20067;-63
2022/03/04 00:09:34;;;;;;;25.85;12.52;;;1.20;46.50;;;;;;5079530;28;20028;-62
2022/03/04 00:12:03;;;;;;;26.52;12.07;;;1.20;46.50;;;;;;5085093;28;20055;-63
2022/03/04 00:14:29;;;;;;;23.67;12.18;;;1.10;46.40;;;;;;5084505;28;20080;-62
2022/03/04 00:16:55;;;;;;;23.10;12.18;;;1.10;46.50;;;;;;5085385;28;20084;-62
2022/03/04 00:19:21;;;;;;;28.65;12.80;;;1.10;46.70;;;;;;5084709;28;20056;-62
2022/03/04 00:21:49;;;;;;;26.00;11.93;;;1.40;46.90;;;;;;5083726;28;20051;-61
2022/03/04 00:24:16;;;;;;;26.10;12.65;;;1.00;46.90;;;;;;5083793;28;20467;-62
2022/03/04 00:26:42;;;;;;;19.80;10.90;;;1.00;47.00;;;;;;5083468;28;20021;-62
2022/03/04 00:29:09;;;;;;;22.88;11.27;;;1.00;47.00;;;;;;5082766;28;20040;-63
2022/03/04 00:31:35;;;;;;;24.67;12.70;;;0.90;46.90;;;;;;5080815;28;20025;-62
2022/03/04 00:34:02;;;;;;;23.30;11.20;;;1.10;47.00;;;;;;5074783;28;20016;-63
2022/03/04 00:36:28;;;;;;;24.35;11.90;;;0.90;47.10;;;;;;5084672;28;20102;-62
2022/03/04 00:38:55;;;;;;;26.02;11.57;;;0.90;47.20;;;;;;5083678;28;20032;-62
2022/03/04 00:41:22;;;;;;;21.90;10.80;;;0.90;47.20;;;;;;5082351;28;20059;-62
2022/03/04 00:43:49;;;;;;;21.52;11.50;;;1.10;47.40;;;;;;5083179;28;20028;-63
2022/03/04 00:46:16;;;;;;;24.10;11.60;;;0.80;47.10;;;;;;5082916;28;20655;-62
2022/03/04 00:48:43;;;;;;;22.30;11.43;;;0.90;47.40;;;;;;5083432;28;20152;-61
2022/03/04 00:51:10;;;;;;;19.35;9.50;;;0.70;47.40;;;;;;5084739;28;20086;-62
2022/03/04 00:53:36;;;;;;;24.00;10.15;;;0.70;47.40;;;;;;5082899;28;20414;-63
2022/03/04 00:56:02;;;;;;;18.48;10.18;;;0.80;47.50;;;;;;5082058;28;20059;-61
2022/03/04 00:58:28;;;;;;;20.63;10.25;;;0.70;47.60;;;;;;5084027;28;20032;-62
2022/03/04 01:00:54;;;;;;;23.55;10.40;;;0.60;47.70;;;;;;5082308;28;20115;-63
2022/03/04 01:03:20;;;;;;;20.33;10.93;;;0.60;47.80;;;;;;5095105;28;20036;-61
2022/03/04 01:05:46;;;;;;;21.00;10.52;;;0.60;47.70;;;;;;5082174;28;20021;-63
2022/03/04 01:08:12;;;;;;;20.65;10.48;;;0.60;47.70;;;;;;5083610;28;20044;-63
2022/03/04 01:10:38;;;;;;;24.65;11.30;;;0.60;47.70;;;;;;5080996;28;20244;-63
2022/03/04 01:13:04;;;;;;;19.58;9.73;;;0.50;47.90;;;;;;5075281;28;20084;-63
2022/03/04 01:15:30;;;;;;;25.17;10.57;;;0.50;48.00;;;;;;5082218;28;20033;-61
2022/03/04 01:17:56;;;;;;;24.63;10.77;;;0.50;48.10;;;;;;5076476;28;20059;-62
2022/03/04 01:20:23;;;;;;;19.85;10.65;;;0.50;48.10;;;;;;5077606;28;20036;-62
2022/03/04 01:22:48;;;;;;;18.73;9.65;;;0.40;48.20;;;;;;5083899;28;20036;-62
2022/03/04 01:25:15;;;;;;;23.23;10.50;;;0.50;48.30;;;;;;5082371;28;20035;-62
2022/03/04 01:27:41;;;;;;;20.40;9.45;;;0.50;48.30;;;;;;5083451;28;20024;-61
2022/03/04 01:30:08;;;;;;;20.67;10.27;;;0.60;48.30;;;;;;5074498;28;20080;-62
2022/03/04 01:32:35;;;;;;;18.90;9.63;;;0.30;48.20;;;;;;5077603;28;20025;-62
2022/03/04 01:35:00;;;;;;;19.75;9.73;;;0.30;48.30;;;;;;5078490;28;20024;-61
2022/03/04 01:37:26;;;;;;;22.50;10.90;;;0.30;48.40;;;;;;5083155;28;20039;-62
2022/03/04 01:39:52;;;;;;;20.48;10.32;;;0.30;48.50;;;;;;5082773;28;20059;-62
2022/03/04 01:42:18;;;;;;;21.05;10.32;;;0.30;48.60;;;;;;5083581;28;20108;-62
2022/03/04 01:44:45;;;;;;;25.65;10.25;;;0.20;48.60;;;;;;5082610;28;20032;-62
2022/03/04 01:47:11;;;;;;;21.33;9.93;;;0.40;48.60;;;;;;5082439;28;20020;-63
2022/03/04 01:49:39;;;;;;;21.25;9.55;;;0.20;48.60;;;;;;5076227;28;20016;-61
2022/03/04 01:52:05;;;;;;;18.92;10.10;;;0.20;48.60;;;;;;5083015;28;20017;-62
2022/03/04 01:54:30;;;;;;;19.90;10.05;;;0.20;48.50;;;;;;5082000;28;20054;-63
2022/03/04 01:56:56;;;;;;;20.98;9.65;;;0.30;48.60;;;;;;5082374;28;20077;-62
2022/03/04 01:59:22;;;;;;;26.63;10.18;;;0.10;48.60;;;;;;5081870;28;20040;-63
2022/03/04 02:01:47;;;;;;;18.60;9.93;;;0.10;48.70;;;;;;5083717;28;20032;-63
2022/03/04 02:04:13;;;;;;;20.88;10.73;;;0.10;48.80;;;;;;5081951;28;20036;-63
2022/03/04 02:06:39;;;;;;;21.40;10.25;;;0.10;48.90;;;;;;5083535;28;20056;-63
2022/03/04 02:09:04;;;;;;;19.00;9.57;;;0.10;48.90;;;;;;5077740;28;20040;-62
2022/03/04 02:11:30;;;;;;;19.88;9.52;;;0.00;48.80;;;;;;5070381;28;20017;-63
2022/03/04 02:13:56;;;;;;;18.92;10.05;;;0.00;48.90;;;;;;5082281;28;20486;-63
2022/03/04 02:16:54;;;;;;;22.70;9.30;;;0.00;48.80;;;;;;5084193;28;20311;-61
2022/03/04 02:19:21;;;;;;;19.92;9.20;;;0.00;49.40;;;;;;4982720;28;20124;-63
2022/03/04 02:21:54;;;;;;;23.63;10.35;;;0.10;48.60;;;;;;5001428;28;20034;-62
2022/03/04 02:24:22;;;;;;;17.07;7.77;;;-0.10;48.70;;;;;;4994130;28;20037;-63
2022/03/04 02:26:49;;;;;;;19.88;9.65;;;0.10;48.80;;;;;;5000867;28;20041;-62
2022/03/04 02:29:15;;;;;;;19.70;9.65;;;-0.10;48.70;;;;;;5003161;28;20114;-62
2022/03/04 02:31:41;;;;;;;19.52;10.35;;;-0.10;48.80;;;;;;5001032;28;20034;-61
2022/03/04 02:34:07;;;;;;;20.65;10.65;;;-0.20;48.90;;;;;;4999684;28;20030;-63
2022/03/04 02:36:33;;;;;;;24.33;11.20;;;-0.20;49.00;;;;;;5000072;28;20045;-63
2022/03/04 02:38:59;;;;;;;19.85;10.20;;;-0.20;49.70;;;;;;4999249;28;20062;-62
2022/03/04 02:41:24;;;;;;;21.70;10.25;;;-0.20;49.10;;;;;;5000103;28;20038;-62
2022/03/04 02:43:51;;;;;;;24.75;11.63;;;0.00;49.30;;;;;;5000459;28;20064;-62
2022/03/04 02:46:17;;;;;;;21.58;11.43;;;-0.30;49.20;;;;;;5000024;28;20045;-61
2022/03/04 02:48:42;;;;;;;22.67;10.55;;;-0.30;49.20;;;;;;4948247;28;20042;-63
2022/03/04 02:51:08;;;;;;;23.25;10.95;;;-0.30;49.30;;;;;;4984837;28;20023;-61
2022/03/04 02:53:34;;;;;;;27.20;12.40;;;-0.40;49.20;;;;;;4999887;28;20749;-63
2022/03/04 02:56:00;;;;;;;22.88;10.98;;;-0.40;49.20;;;;;;5076302;28;20046;-62
2022/03/04 02:58:25;;;;;;;22.83;11.15;;;-0.20;49.30;;;;;;5082938;28;20088;-62
2022/03/04 03:00:51;;;;;;;25.75;11.15;;;-0.40;49.30;;;;;;5082014;28;20066;-61
2022/03/04 03:03:17;;;;;;;19.48;10.50;;;-0.40;49.40;;;;;;5082693;28;20029;-62
2022/03/04 03:05:43;;;;;;;25.33;11.75;;;-0.20;49.50;;;;;;5081316;28;20029;-62
2022/03/04 03:08:08;;;;;;;26.58;10.90;;;-0.30;49.40;;;;;;5082050;28;20028;-61
2022/03/04 03:10:34;;;;;;;33.38;11.70;;;-0.40;49.30;;;;;;5084288;28;20025;-63
2022/03/04 03:13:00;;;;;;;24.23;11.65;;;-0.40;49.20;;;;;;5091241;28;20028;-62
2022/03/04 03:15:26;;;;;;;25.75;11.88;;;-0.20;49.60;;;;;;5080042;28;20017;-61
2022/03/04 03:17:52;;;;;;;28.27;12.50;;;-0.50;49.50;;;;;;5082112;28;20062;-63
2022/03/04 03:20:18;;;;;;;25.95;11.45;;;-0.50;49.60;;;;;;5079890;28;20112;-63
2022/03/04 03:22:44;;;;;;;25.38;12.45;;;-0.30;50.20;;;;;;5071678;28;20021;-62
2022/03/04 03:25:10;;;;;;;23.80;11.60;;;-0.50;49.50;;;;;;5080847;28;20033;-61
2022/03/04 03:27:36;;;;;;;21.50;10.45;;;-0.30;49.60;;;;;;5072662;28;20375;-62
2022/03/04 03:30:04;;;;;;;26.80;11.35;;;-0.50;49.60;;;;;;5083851;28;20029;-63
2022/03/04 03:32:30;;;;;;;26.48;10.88;;;-0.50;49.80;;;;;;5086256;28;20020;-62
2022/03/04 03:34:56;;;;;;;20.05;10.40;;;-0.60;49.70;;;;;;5084498;28;20032;-61
2022/03/04 03:37:21;;;;;;;18.42;10.40;;;-0.60;49.60;;;;;;5085898;28;20032;-63
2022/03/04 03:39:47;;;;;;;26.95;11.23;;;-0.40;49.80;;;;;;5084032;28;20100;-61
2022/03/04 03:42:13;;;;;;;18.73;10.20;;;-0.60;49.70;;;;;;5082429;28;20021;-61
2022/03/04 03:44:38;;;;;;;21.13;10.48;;;-0.50;49.90;;;;;;5085039;28;20494;-62
2022/03/04 03:47:04;;;;;;;20.73;10.00;;;-0.60;50.00;;;;;;5085130;28;20376;-61
2022/03/04 03:49:30;;;;;;;19.67;9.32;;;-0.60;49.80;;;;;;5085528;28;20383;-62
2022/03/04 03:51:56;;;;;;;20.17;9.85;;;-0.60;50.00;;;;;;5086468;28;20409;-62
2022/03/04 03:54:21;;;;;;;20.27;8.85;;;-0.70;50.00;;;;;;5084913;28;20060;-62
2022/03/04 03:56:47;;;;;;;20.55;9.55;;;-0.60;50.00;;;;;;5084332;28;20036;-63
2022/03/04 03:59:13;;;;;;;20.67;9.32;;;-0.60;50.30;;;;;;5079388;28;20029;-62
2022/03/04 04:01:39;;;;;;;28.73;10.75;;;-0.70;50.20;;;;;;5083065;28;20807;-61
2022/03/04 04:04:14;;;;;;;18.70;9.43;;;-0.70;50.10;;;;;;5083106;28;20052;-61
2022/03/04 04:06:42;;;;;;;18.67;9.05;;;-0.70;50.20;;;;;;5088129;28;20020;-63
2022/03/04 04:09:08;;;;;;;16.98;9.57;;;-0.70;50.30;;;;;;5083854;28;20548;-62
2022/03/04 04:11:36;;;;;;;20.63;9.48;;;-0.60;50.30;;;;;;5082985;28;20095;-61
2022/03/04 04:14:03;;;;;;;17.70;9.25;;;-0.70;50.30;;;;;;5075155;28;20013;-61
2022/03/04 04:16:29;;;;;;;16.48;9.35;;;-0.70;50.30;;;;;;5071952;28;20043;-62
2022/03/04 04:18:56;;;;;;;18.40;9.18;;;-0.70;50.40;;;;;;5083312;28;20500;-61
2022/03/04 04:21:22;;;;;;;16.92;9.45;;;-0.50;50.50;;;;;;5084920;28;20031;-62
2022/03/04 04:23:48;;;;;;;16.90;8.82;;;-0.70;50.30;;;;;;5081031;28;20016;-61
2022/03/04 04:26:14;;;;;;;21.80;10.25;;;-0.80;50.40;;;;;;5085253;28;20031;-62
2022/03/04 04:28:39;;;;;;;23.70;9.32;;;-0.80;50.40;;;;;;5083014;28;20044;-62
2022/03/04 04:31:07;;;;;;;21.08;9.63;;;-0.80;50.30;;;;;;5082783;28;20032;-62
2022/03/04 04:33:32;;;;;;;18.80;9.10;;;-0.80;50.30;;;;;;5085252;28;20190;-62
2022/03/04 04:35:58;;;;;;;18.15;9.30;;;-0.80;50.30;;;;;;5083244;28;20021;-60
2022/03/04 04:38:24;;;;;;;18.83;10.43;;;-0.80;50.40;;;;;;5084426;28;20059;-62
2022/03/04 04:40:50;;;;;;;21.48;9.85;;;-0.80;50.30;;;;;;5080557;28;20036;-61
2022/03/04 04:43:15;;;;;;;23.17;10.40;;;-0.90;50.30;;;;;;5082712;28;20028;-61
2022/03/04 04:45:41;;;;;;;18.05;9.73;;;-0.90;50.30;;;;;;5078865;28;20036;-62
2022/03/04 04:48:07;;;;;;;23.67;10.18;;;-0.60;50.60;;;;;;5083363;28;20024;-62
2022/03/04 04:50:32;;;;;;;23.05;9.80;;;-0.70;50.30;;;;;;5082208;28;20062;-62
2022/03/04 04:52:58;;;;;;;18.85;9.80;;;-0.90;50.30;;;;;;5083172;28;20055;-63
2022/03/04 04:55:24;;;;;;;19.55;10.70;;;-0.90;50.40;;;;;;5081979;28;20503;-62
2022/03/04 04:57:49;;;;;;;19.52;10.20;;;-1.00;50.90;;;;;;5075129;28;20032;-62
2022/03/04 05:00:15;;;;;;;36.45;11.80;;;-1.00;50.30;;;;;;5083354;28;20066;-61
2022/03/04 05:02:41;;;;;;;19.30;9.32;;;-1.00;50.30;;;;;;5076941;28;20139;-63
2022/03/04 05:05:06;;;;;;;20.20;9.95;;;-0.90;50.50;;;;;;5077374;28;20035;-61
2022/03/04 05:07:32;;;;;;;21.25;9.85;;;-1.00;50.30;;;;;;5083927;28;20019;-62
2022/03/04 05:09:58;;;;;;;19.33;9.73;;;-1.10;50.10;;;;;;5082722;28;20029;-61
2022/03/04 05:12:23;;;;;;;21.63;9.48;;;-1.10;50.20;;;;;;5082369;28;20433;-61
2022/03/04 05:14:49;;;;;;;19.30;9.98;;;-1.10;50.30;;;;;;5082803;28;20550;-62
2022/03/04 05:17:14;;;;;;;19.52;10.35;;;-1.10;50.50;;;;;;5084248;28;20024;-62
2022/03/04 05:19:40;;;;;;;24.10;9.70;;;-1.20;50.50;;;;;;5087855;28;20020;-61
2022/03/04 05:22:06;;;;;;;23.63;10.90;;;-1.00;50.60;;;;;;5086612;28;20550;-62
2022/03/04 05:24:31;;;;;;;21.92;10.07;;;-1.20;50.40;;;;;;5083782;28;20021;-61
2022/03/04 05:26:57;;;;;;;17.67;9.38;;;-1.20;50.40;;;;;;5083572;28;20498;-62
2022/03/04 05:29:23;;;;;;;27.10;10.90;;;-1.20;50.30;;;;;;5089607;28;20083;-63
2022/03/04 05:31:48;;;;;;;22.90;9.85;;;-1.30;50.10;;;;;;5083138;28;20032;-61
2022/03/04 05:34:15;;;;;;;25.70;10.82;;;-1.30;50.20;;;;;;5082229;28;20017;-61
2022/03/04 05:36:41;;;;;;;22.65;9.43;;;-1.40;50.20;;;;;;5083621;28;20474;-62
2022/03/04 05:39:07;;;;;;;23.65;10.32;;;-1.40;50.30;;;;;;5082981;28;20032;-60
2022/03/04 05:41:33;;;;;;;22.75;10.82;;;-1.40;50.50;;;;;;5079245;28;20028;-62
2022/03/04 05:43:59;;;;;;;27.70;10.57;;;-1.40;50.70;;;;;;5082293;28;20048;-61
2022/03/04 05:46:24;;;;;;;20.60;9.88;;;-1.20;50.80;;;;;;5082319;28;20395;-61
2022/03/04 05:48:50;;;;;;;19.67;10.18;;;-1.50;51.00;;;;;;5079692;28;20088;-62
2022/03/04 05:51:17;;;;;;;22.55;10.65;;;-1.50;51.20;;;;;;5083074;28;20031;-62
2022/03/04 05:53:42;;;;;;;24.65;10.95;;;-1.50;51.10;;;;;;5079052;28;20024;-62
2022/03/04 05:56:09;;;;;;;18.45;9.75;;;-1.50;51.00;;;;;;5072698;28;20060;-61
2022/03/04 05:58:37;;;;;;;24.17;11.13;;;-1.50;51.10;;;;;;5082208;28;20028;-61
2022/03/04 06:01:06;;;;;;;22.42;10.13;;;-1.50;51.00;;;;;;5081154;28;20046;-62
2022/03/04 06:03:32;;;;;;;25.13;10.40;;;-1.30;51.10;;;;;;5078714;28;20414;-62
2022/03/04 06:05:58;;;;;;;23.63;10.40;;;-1.50;50.90;;;;;;5082671;28;20239;-61
2022/03/04 06:08:24;;;;;;;23.45;9.75;;;-1.50;50.90;;;;;;5080877;28;20041;-62
2022/03/04 06:10:50;;;;;;;21.95;10.13;;;-1.40;51.10;;;;;;5082013;28;20052;-63
2022/03/04 06:13:16;;;;;;;25.33;11.18;;;-1.50;51.20;;;;;;5082312;28;20024;-62
2022/03/04 06:15:41;;;;;;;26.13;11.18;;;-1.30;51.40;;;;;;5081807;28;20027;-63
2022/03/04 06:18:07;;;;;;;29.42;13.35;;;-1.30;51.40;;;;;;5081908;28;20021;-61
2022/03/04 06:20:33;;;;;;;28.85;13.20;;;-1.50;51.30;;;;;;5080595;28;20077;-62
2022/03/04 06:22:59;;;;;;;28.50;13.10;;;-1.20;51.40;;;;;;5079885;28;20036;-61
2022/03/04 06:25:25;;;;;;;33.88;14.00;;;-1.30;51.40;;;;;;5080981;28;20064;-61
2022/03/04 06:27:59;;;;;;;30.25;13.23;;;-1.50;51.20;;;;;;5074681;28;20091;-61
2022/03/04 06:30:27;;;;;;;29.67;14.18;;;-1.50;51.40;;;;;;5081260;28;20063;-62
2022/03/04 06:35:39;;;;;;;34.60;14.35;;;-1.40;51.20;;;;;;5073326;28;20095;-62
2022/03/04 06:38:05;;;;;;;35.80;14.65;;;-1.40;51.30;;;;;;5082311;28;20431;-63
2022/03/04 06:40:31;;;;;;;34.83;15.55;;;-1.20;51.50;;;;;;5081728;28;20028;-62
2022/03/04 06:42:56;;;;;;;33.80;14.25;;;-1.10;51.50;;;;;;5082051;28;20044;-62
2022/03/04 06:45:22;;;;;;;32.00;14.60;;;-1.30;51.40;;;;;;5080876;28;20078;-61
2022/03/04 06:47:48;;;;;;;29.67;13.65;;;-1.20;51.50;;;;;;5081628;28;20027;-61
2022/03/04 06:50:13;;;;;;;26.48;13.80;;;-1.20;51.60;;;;;;5080983;28;20059;-62
2022/03/04 06:52:39;;;;;;;26.50;13.00;;;-1.10;51.60;;;;;;5082377;28;20033;-61
2022/03/04 06:55:05;;;;;;;27.40;13.77;;;-0.90;51.70;;;;;;5081035;28;20024;-62
2022/03/04 06:57:31;;;;;;;33.22;13.25;;;-1.00;51.80;;;;;;5078668;28;20533;-61
2022/03/04 06:59:57;;;;;;;30.35;12.30;;;-0.90;52.10;;;;;;5075092;28;20021;-61
2022/03/04 07:02:23;;;;;;;30.67;11.65;;;-0.80;52.30;;;;;;5083954;28;20305;-61
2022/03/04 07:04:49;;;;;;;30.30;13.02;;;-0.70;52.50;;;;;;5077093;28;20028;-62
2022/03/04 07:07:15;;;;;;;29.33;12.93;;;-0.60;52.60;;;;;;5085345;28;20028;-61
2022/03/04 07:09:41;;;;;;;30.30;11.75;;;-0.50;52.60;;;;;;5082045;28;20044;-61
2022/03/04 07:12:07;;;;;;;26.60;12.25;;;-0.10;52.70;;;;;;5076470;28;20025;-62
2022/03/04 07:14:33;;;;;;;29.90;12.23;;;-0.30;52.40;;;;;;5084797;28;20020;-61
2022/03/04 07:16:59;;;;;;;33.58;13.40;;;-0.20;52.60;;;;;;5085866;28;20024;-62
2022/03/04 07:19:25;;;;;;;26.27;12.88;;;-0.10;52.70;;;;;;5084330;28;20029;-61
2022/03/04 07:21:50;;;;;;;28.17;12.35;;;0.00;52.60;;;;;;5084548;28;20038;-62
2022/03/04 07:24:16;;;;;;;29.10;13.48;;;0.10;52.70;;;;;;5084941;28;20498;-61
2022/03/04 07:26:42;;;;;;;29.80;14.02;;;0.30;52.70;;;;;;5086114;28;20032;-62
2022/03/04 07:29:07;;;;;;;32.03;12.25;;;0.60;52.70;;;;;;5070238;28;20055;-62
2022/03/04 07:31:33;;;;;;;24.92;12.52;;;0.50;52.60;;;;;;5083181;28;20032;-61
2022/03/04 07:33:59;;;;;;;27.08;12.50;;;0.70;52.70;;;;;;5085605;28;20037;-61
2022/03/04 07:36:25;;;;;;;34.50;13.27;;;0.80;52.70;;;;;;5086255;28;20025;-61
2022/03/04 07:38:50;;;;;;;26.13;13.20;;;1.00;52.70;;;;;;5084775;28;20029;-61
2022/03/04 07:41:16;;;;;;;30.67;13.52;;;1.20;52.50;;;;;;5082522;28;20445;-61
2022/03/04 07:43:41;;;;;;;31.35;14.43;;;1.30;52.50;;;;;;5082739;28;20074;-62
2022/03/04 07:46:08;;;;;;;32.15;13.35;;;1.50;52.50;;;;;;5084214;28;20048;-61
2022/03/04 07:48:33;;;;;;;32.50;13.77;;;1.60;52.50;;;;;;5078926;28;20032;-60
2022/03/04 07:50:59;;;;;;;31.88;12.70;;;1.80;52.40;;;;;;5084435;28;20025;-62
2022/03/04 07:53:25;;;;;;;29.27;12.75;;;2.00;52.40;;;;;;5085869;28;20020;-61
2022/03/04 07:55:50;;;;;;;32.70;13.68;;;2.20;52.30;;;;;;5079716;28;20057;-61
2022/03/04 07:58:16;;;;;;;26.70;12.88;;;2.40;52.20;;;;;;5079451;28;20043;-62
2022/03/04 08:00:42;;;;;;;24.42;12.80;;;2.60;52.10;;;;;;5084585;28;20033;-62
2022/03/04 08:03:07;;;;;;;27.00;13.43;;;2.70;52.00;;;;;;5084530;28;20035;-63
2022/03/04 08:05:33;;;;;;;28.23;13.85;;;2.90;51.80;;;;;;5083110;28;20035;-63
2022/03/04 08:07:59;;;;;;;30.92;13.90;;;3.10;51.60;;;;;;5085401;28;20032;-63
2022/03/04 08:10:25;;;;;;;34.83;15.13;;;3.20;51.40;;;;;;5081330;28;21789;-63
2022/03/04 08:12:51;;;;;;;34.05;15.65;;;3.40;51.60;;;;;;5087117;28;20056;-63
2022/03/04 08:15:16;;;;;;;28.70;14.80;;;3.50;51.00;;;;;;5085594;28;20035;-63
2022/03/04 08:17:44;;;;;;;29.45;14.77;;;3.70;51.10;;;;;;5086415;28;20028;-63
2022/03/04 08:20:10;;;;;;;30.70;14.77;;;3.90;50.80;;;;;;5084962;28;20021;-63
2022/03/04 08:22:36;;;;;;;29.77;15.68;;;4.00;50.50;;;;;;5086258;28;20117;-63
2022/03/04 08:25:03;;;;;;;30.23;15.07;;;4.10;50.50;;;;;;5084894;28;20028;-62
2022/03/04 08:27:29;;;;;;;35.30;16.65;;;4.30;50.20;;;;;;5084077;28;20107;-64
2022/03/04 08:29:55;;;;;;;29.67;14.40;;;4.40;49.70;;;;;;5082208;28;20059;-64
2022/03/04 08:32:23;;;;;;;28.48;15.40;;;4.60;49.70;;;;;;5080217;28;20028;-63
2022/03/04 08:34:49;;;;;;;28.48;15.27;;;4.70;49.50;;;;;;5080220;28;20016;-64
2022/03/04 08:37:15;;;;;;;28.70;15.55;;;4.80;49.30;;;;;;5085384;28;20020;-63
2022/03/04 08:39:40;;;;;;;44.53;16.40;;;5.00;49.30;;;;;;5077848;28;20040;-62
2022/03/04 08:42:07;;;;;;;29.90;15.00;;;5.20;49.30;;;;;;5083556;28;20039;-63
2022/03/04 08:44:33;;;;;;;28.25;15.27;;;5.30;49.00;;;;;;5082090;28;20033;-64
2022/03/04 08:46:58;;;;;;;28.17;15.38;;;5.50;48.70;;;;;;5075425;28;20064;-63
2022/03/04 08:49:24;;;;;;;29.08;14.05;;;5.60;48.40;;;;;;5073952;28;20032;-64
2022/03/04 08:51:50;;;;;;;29.15;14.68;;;5.80;48.90;;;;;;5073157;28;20028;-63
2022/03/04 08:54:16;;;;;;;24.33;13.63;;;5.90;48.10;;;;;;5080910;28;20025;-64
2022/03/04 08:56:41;;;;;;;24.98;14.13;;;6.00;47.70;;;;;;5084023;28;20042;-63
2022/03/04 08:59:07;;;;;;;27.58;13.43;;;6.20;47.40;;;;;;5082691;28;20084;-64
2022/03/04 09:01:33;;;;;;;25.75;13.60;;;6.30;47.10;;;;;;5072738;28;20025;-63
2022/03/04 09:03:59;;;;;;;30.05;14.07;;;6.40;46.90;;;;;;5083134;28;20059;-64
2022/03/04 09:06:24;;;;;;;26.58;13.18;;;6.50;46.80;;;;;;5082771;28;20111;-64
2022/03/04 09:08:50;;;;;;;26.33;13.50;;;6.60;47.30;;;;;;5081991;28;20080;-63
2022/03/04 09:11:16;;;;;;;26.52;13.57;;;6.70;48.80;;;;;;5085696;28;20021;-63
2022/03/04 09:13:42;;;;;;;28.92;15.45;;;6.80;47.50;;;;;;5080624;28;20035;-64
2022/03/04 09:16:08;;;;;;;24.13;13.32;;;6.90;46.80;;;;;;5085715;28;20047;-63
2022/03/04 09:18:34;;;;;;;27.02;14.10;;;7.00;46.40;;;;;;5080708;28;20039;-63
2022/03/04 09:21:00;;;;;;;23.27;13.63;;;7.10;46.40;;;;;;5086074;28;20029;-63
2022/03/04 09:23:26;;;;;;;25.88;14.18;;;7.20;46.10;;;;;;5081977;28;20033;-63
2022/03/04 09:25:52;;;;;;;25.95;14.55;;;7.30;46.00;;;;;;5083443;28;20102;-63
2022/03/04 09:28:18;;;;;;;27.67;14.27;;;7.40;45.50;;;;;;5085686;28;20490;-64
2022/03/04 09:30:43;;;;;;;27.15;13.68;;;7.60;45.50;;;;;;5081819;28;20312;-64
2022/03/04 09:33:09;;;;;;;28.02;14.52;;;7.70;45.20;;;;;;5085485;28;20065;-64
2022/03/04 09:35:35;;;;;;;27.10;14.27;;;7.80;44.90;;;;;;5083859;28;20076;-63
2022/03/04 09:38:01;;;;;;;27.95;14.93;;;7.90;44.70;;;;;;5084881;28;20062;-64
2022/03/04 09:40:27;;;;;;;25.48;13.98;;;8.00;43.90;;;;;;5070919;28;20059;-66
2022/03/04 09:42:54;;;;;;;25.63;15.18;;;8.00;43.80;;;;;;5084767;28;20088;-64
2022/03/04 09:45:20;;;;;;;24.30;13.73;;;8.10;44.00;;;;;;5081766;28;20046;-64
2022/03/04 09:47:46;;;;;;;27.05;14.90;;;8.20;43.80;;;;;;4963407;28;20021;-65
2022/03/04 09:50:16;;;;;;;30.15;15.38;;;8.30;43.40;;;;;;5083955;28;20036;-64
2022/03/04 09:52:43;;;;;;;24.20;15.00;;;8.40;43.00;;;;;;5082652;28;20351;-64
2022/03/04 09:55:09;;;;;;;25.35;14.27;;;8.40;43.00;;;;;;5084066;28;20044;-64
2022/03/04 09:57:35;;;;;;;33.53;14.82;;;8.50;42.70;;;;;;5082564;28;20042;-64
2022/03/04 10:00:01;;;;;;;28.33;14.85;;;8.60;42.80;;;;;;5083356;28;20087;-63
2022/03/04 10:02:35;;;;;;;23.38;14.27;;;8.70;42.50;;;;;;5080467;28;20036;-64
2022/03/04 10:05:02;;;;;;;20.10;10.40;;;8.70;42.10;;;;;;5079947;28;20028;-65
2022/03/04 10:07:41;;;;;;;24.85;15.02;;;8.80;42.30;;;;;;5073165;28;20028;-65
2022/03/04 10:13:02;;;;;;;22.95;13.90;;;9.00;41.20;;;;;;5001222;22;1315627;-62
2022/03/04 10:15:28;;;;;;;29.42;14.60;;;9.00;41.30;;;;;;5002479;28;20034;-62
2022/03/04 10:17:58;;;;;;;27.13;15.18;;;9.10;41.90;;;;;;4999516;28;20505;-62
2022/03/04 10:20:42;;;;;;;27.40;15.00;;;9.10;41.20;;;;;;4999280;28;20042;-62
2022/03/04 10:23:37;;;;;;;25.83;14.40;;;9.20;40.70;;;;;;5018496;28;20030;-62
2022/03/04 10:26:03;;;;;;;29.27;13.57;;;9.40;40.20;;;;;;4991643;28;20073;-62
2022/03/04 10:28:31;;;;;;;24.27;14.30;;;9.50;41.00;;;;;;5008886;28;20061;-63
2022/03/04 10:30:58;;;;;;;25.25;15.23;;;9.60;40.40;;;;;;4999218;28;20039;-62
2022/03/04 10:33:26;;;;;;;26.00;15.35;;;9.60;40.30;;;;;;5006545;28;20042;-62
2022/03/04 10:36:25;;;;;;;31.10;15.40;;;9.80;39.90;;;;;;5002573;28;20030;-63
2022/03/04 10:39:08;;;;;;;24.90;14.10;;;9.80;38.90;;;;;;4971892;28;20081;-62
2022/03/04 10:41:35;;;;;;;32.30;14.43;;;10.00;38.60;;;;;;4979029;28;20106;-63
2022/03/04 10:44:24;;;;;;;25.52;14.98;;;10.10;39.50;;;;;;4980748;28;20038;-62
2022/03/04 10:46:58;;;;;;;24.45;13.82;;;10.10;38.50;;;;;;4980135;28;20094;-62
2022/03/04 10:49:25;;;;;;;23.75;14.45;;;10.20;38.50;;;;;;4981044;28;20042;-63
2022/03/04 10:52:04;;;;;;;27.17;14.30;;;10.20;39.10;;;;;;4987062;28;20113;-61
2022/03/04 10:54:29;;;;;;;23.13;14.50;;;10.30;38.70;;;;;;5015532;28;20058;-63
2022/03/04 10:56:55;;;;;;;27.92;15.50;;;10.50;39.00;;;;;;5001521;28;20119;-63
2022/03/04 10:59:24;;;;;;;24.98;14.45;;;10.50;39.10;;;;;;5000577;28;20174;-64
2022/03/04 11:01:51;;;;;;;31.60;16.25;;;10.70;38.70;;;;;;5011297;28;20042;-62
2022/03/04 11:04:19;;;;;;;25.42;13.85;;;10.70;38.00;;;;;;5019408;28;20026;-62
2022/03/04 11:06:46;;;;;;;24.30;14.75;;;10.80;37.60;;;;;;5015759;28;20033;-61
2022/03/04 11:09:16;;;;;;;26.60;15.80;;;10.80;37.80;;;;;;5012119;28;20030;-62
2022/03/04 11:11:44;;;;;;;25.05;14.38;;;10.90;37.80;;;;;;5005718;28;20045;-63
2022/03/04 11:14:13;;;;;;;24.75;14.45;;;11.00;38.00;;;;;;5033760;28;20041;-64
2022/03/04 11:16:40;;;;;;;25.95;14.05;;;11.10;37.90;;;;;;5061137;28;20085;-63
2022/03/04 11:19:09;;;;;;;24.70;13.93;;;11.10;37.60;;;;;;5059880;28;20384;-63
2022/03/04 11:21:35;;;;;;;23.90;14.93;;;11.20;36.70;;;;;;5048735;28;20029;-61
2022/03/04 11:24:02;;;;;;;29.17;15.45;;;11.20;36.80;;;;;;5045883;28;20022;-61
2022/03/04 11:26:31;;;;;;;27.90;14.38;;;11.30;36.40;;;;;;5045440;28;20034;-62
2022/03/04 11:28:58;;;;;;;26.63;14.82;;;11.30;36.20;;;;;;5046521;28;20117;-62
2022/03/04 11:31:26;;;;;;;25.77;14.48;;;11.40;36.40;;;;;;5046985;28;20036;-65
2022/03/04 11:33:56;;;;;;;27.45;14.90;;;11.40;35.90;;;;;;5046049;28;20030;-62
2022/03/04 11:36:25;;;;;;;23.05;13.10;;;11.50;36.20;;;;;;5047255;28;20022;-62
2022/03/04 11:38:53;;;;;;;21.90;13.23;;;11.50;36.00;;;;;;5044766;28;20032;-63
2022/03/04 11:41:19;;;;;;;24.38;14.43;;;11.50;35.80;;;;;;5018950;28;20025;-61
2022/03/04 11:43:45;;;;;;;25.63;13.82;;;11.60;36.00;;;;;;5045980;28;20029;-62
2022/03/04 11:46:18;;;;;;;23.83;13.95;;;11.60;34.70;;;;;;5044718;28;20032;-62
2022/03/04 11:48:44;;;;;;;26.15;13.90;;;11.60;34.20;;;;;;5021270;28;20159;-62
2022/03/04 11:51:20;;;;;;;25.27;14.30;;;11.70;34.50;;;;;;5044464;28;20064;-62
2022/03/04 11:54:25;;;;;;;26.52;13.50;;;11.70;33.40;;;;;;5027564;28;20422;-62
2022/03/04 11:56:52;;;;;;;21.17;11.57;;;11.70;33.60;;;;;;5041439;28;20060;-61
2022/03/04 11:59:20;;;;;;;21.50;12.75;;;11.70;34.70;;;;;;5047988;28;20018;-61
2022/03/04 12:01:46;;;;;;;22.88;14.07;;;11.60;34.70;;;;;;5047135;28;20037;-63
2022/03/04 12:04:18;;;;;;;21.77;13.07;;;11.70;35.10;;;;;;5046072;28;20021;-62
2022/03/04 12:07:08;;;;;;;19.17;12.02;;;11.70;35.20;;;;;;5047371;28;20528;-62
2022/03/04 12:09:33;;;;;;;20.83;12.38;;;11.70;34.20;;;;;;5012530;28;20026;-63
2022/03/04 12:12:09;;;;;;;23.20;13.27;;;11.80;35.20;;;;;;5046185;28;20043;-62
2022/03/04 12:14:35;;;;;;;18.38;11.95;;;11.80;34.70;;;;;;5041515;28;20517;-62
2022/03/04 12:17:00;;;;;;;23.52;12.85;;;11.90;34.50;;;;;;5046697;28;20056;-63
2022/03/04 12:19:33;;;;;;;22.30;12.35;;;11.90;34.80;;;;;;5044137;28;20029;-63
2022/03/04 12:21:58;;;;;;;22.02;12.13;;;12.00;34.70;;;;;;5036287;28;20075;-65
2022/03/04 12:24:32;;;;;;;21.15;12.65;;;12.10;34.80;;;;;;5044952;28;20025;-63
2022/03/04 12:26:58;;;;;;;24.25;12.70;;;12.20;34.40;;;;;;5046317;28;20125;-62
2022/03/04 12:29:42;;;;;;;19.08;11.55;;;12.30;34.50;;;;;;5043513;28;20080;-63
2022/03/04 12:32:08;;;;;;;20.20;11.83;;;12.40;33.40;;;;;;5038354;28;20037;-62
2022/03/04 12:34:34;;;;;;;20.45;11.73;;;12.50;33.70;;;;;;5044154;28;20033;-62
2022/03/04 12:37:04;;;;;;;19.33;11.75;;;12.60;33.80;;;;;;5045644;28;20057;-62
2022/03/04 12:39:36;;;;;;;20.73;12.07;;;12.60;33.80;;;;;;5044367;28;20048;-62